createdAt,value
2023-06-30T00:00:14.650Z,9.45
2023-06-30T00:02:47.814Z,9.95
2023-06-30T00:05:16.024Z,7.65
2023-06-30T00:07:44.342Z,7.40
2023-06-30T00:10:12.863Z,9.63
2023-06-30T00:12:40.735Z,11.75
2023-06-30T00:15:09.182Z,11.60
2023-06-30T00:17:38.328Z,8.45
2023-06-30T00:20:07.539Z,8.98
2023-06-30T00:22:36.842Z,7.85
2023-06-30T00:25:05.100Z,7.07
2023-06-30T00:27:32.951Z,11.25
2023-06-30T00:30:00.749Z,8.40
2023-06-30T00:32:32.701Z,7.00
2023-06-30T00:35:02.531Z,8.13
2023-06-30T00:37:30.363Z,6.13
2023-06-30T00:39:58.212Z,9.73
2023-06-30T00:42:26.305Z,9.82
2023-06-30T00:44:56.068Z,8.05
2023-06-30T00:47:24.111Z,8.13
2023-06-30T00:49:54.954Z,10.88
2023-06-30T00:52:24.322Z,11.73
2023-06-30T00:54:52.298Z,11.50
2023-06-30T00:57:20.398Z,13.30
2023-06-30T00:59:48.245Z,8.55
2023-06-30T01:02:21.693Z,8.98
2023-06-30T01:04:56.456Z,7.68
2023-06-30T01:07:34.007Z,11.50
2023-06-30T01:10:11.088Z,9.93
2023-06-30T01:12:39.452Z,8.65
2023-06-30T01:15:09.991Z,10.13
2023-06-30T01:17:46.667Z,11.27
2023-06-30T01:20:18.177Z,11.15
2023-06-30T01:22:52.840Z,9.55
2023-06-30T01:25:22.555Z,7.10
2023-06-30T01:27:51.380Z,8.93
2023-06-30T01:30:20.482Z,10.85
2023-06-30T01:32:51.595Z,11.48
2023-06-30T01:35:19.528Z,10.40
2023-06-30T01:37:48.708Z,11.13
2023-06-30T01:40:17.372Z,12.82
2023-06-30T01:42:45.648Z,10.60
2023-06-30T01:45:17.632Z,7.93
2023-06-30T01:47:45.691Z,10.88
2023-06-30T01:50:13.882Z,12.98
2023-06-30T01:52:41.716Z,9.93
2023-06-30T01:55:11.528Z,10.88
2023-06-30T01:57:39.395Z,12.77
2023-06-30T02:00:08.595Z,10.88
2023-06-30T02:02:42.401Z,10.40
2023-06-30T02:05:11.159Z,11.98
2023-06-30T02:07:39.227Z,11.13
2023-06-30T02:10:11.972Z,12.10
2023-06-30T02:12:39.905Z,10.77
2023-06-30T02:15:09.971Z,13.07
2023-06-30T02:17:38.020Z,9.10
2023-06-30T02:20:07.633Z,10.45
2023-06-30T02:22:35.557Z,13.23
2023-06-30T02:25:03.506Z,10.32
2023-06-30T02:27:33.497Z,11.48
2023-06-30T02:30:06.068Z,13.05
2023-06-30T02:32:39.108Z,10.80
2023-06-30T02:35:08.540Z,10.25
2023-06-30T02:37:36.721Z,13.15
2023-06-30T02:40:05.756Z,13.02
2023-06-30T02:42:34.972Z,10.80
2023-06-30T02:45:02.960Z,10.80
2023-06-30T02:47:30.880Z,10.30
2023-06-30T02:49:59.031Z,12.52
2023-06-30T02:52:27.506Z,9.25
2023-06-30T02:54:55.459Z,10.32
2023-06-30T02:57:24.137Z,9.93
2023-06-30T02:59:53.719Z,9.10
2023-06-30T03:02:22.100Z,13.90
2023-06-30T03:04:50.561Z,12.30
2023-06-30T03:07:19.035Z,13.02
2023-06-30T03:09:47.242Z,9.70
2023-06-30T03:12:15.616Z,10.98
2023-06-30T03:14:43.930Z,13.88
2023-06-30T03:17:14.530Z,11.43
2023-06-30T03:19:42.824Z,13.30
2023-06-30T03:22:10.701Z,15.18
2023-06-30T03:24:38.594Z,11.75
2023-06-30T03:27:07.995Z,10.38
2023-06-30T03:29:36.095Z,14.43
2023-06-30T03:32:05.472Z,10.65
2023-06-30T03:34:36.127Z,9.10
2023-06-30T03:37:04.730Z,11.27
2023-06-30T03:39:32.648Z,11.52
2023-06-30T03:42:01.032Z,8.95
2023-06-30T03:44:29.056Z,9.52
2023-06-30T03:46:59.350Z,10.00
2023-06-30T03:49:28.162Z,13.00
2023-06-30T03:51:57.476Z,10.23
2023-06-30T03:54:25.872Z,13.80
2023-06-30T03:56:53.708Z,8.93
2023-06-30T03:59:21.569Z,12.02
2023-06-30T04:01:49.666Z,14.35
2023-06-30T04:04:17.654Z,10.80
2023-06-30T04:06:45.876Z,14.27
2023-06-30T04:09:16.129Z,13.10
2023-06-30T04:11:44.396Z,13.10
2023-06-30T04:14:12.320Z,11.18
2023-06-30T04:16:40.242Z,12.27
2023-06-30T04:19:08.106Z,17.17
2023-06-30T04:21:35.950Z,11.73
2023-06-30T04:24:03.940Z,12.23
2023-06-30T04:26:33.155Z,17.10
2023-06-30T04:29:00.988Z,11.50
2023-06-30T04:31:28.877Z,15.05
2023-06-30T04:33:56.772Z,12.77
2023-06-30T04:36:24.612Z,11.88
2023-06-30T04:38:52.535Z,15.68
2023-06-30T04:41:20.673Z,15.10
2023-06-30T04:43:49.919Z,14.05
2023-06-30T04:46:18.131Z,12.82
2023-06-30T04:48:46.041Z,15.35
2023-06-30T04:51:14.803Z,16.08
2023-06-30T04:53:43.206Z,12.18
2023-06-30T04:56:11.090Z,12.07
2023-06-30T04:58:38.975Z,13.98
2023-06-30T05:01:08.264Z,18.48
2023-06-30T05:03:36.135Z,16.67
2023-06-30T05:06:04.087Z,14.85
2023-06-30T05:08:31.997Z,16.20
2023-06-30T05:10:59.865Z,16.27
2023-06-30T05:13:28.368Z,14.15
2023-06-30T05:15:56.352Z,14.60
2023-06-30T05:18:25.604Z,18.48
2023-06-30T05:20:53.744Z,14.73
2023-06-30T05:23:21.716Z,16.73
2023-06-30T05:25:52.449Z,13.50
2023-06-30T05:28:20.612Z,19.80
2023-06-30T05:30:48.543Z,28.70
2023-06-30T05:33:16.434Z,15.15
2023-06-30T05:35:45.869Z,15.15
2023-06-30T05:38:14.087Z,16.42
2023-06-30T05:40:42.147Z,21.98
2023-06-30T05:43:10.790Z,16.45
2023-06-30T05:45:40.280Z,13.10
2023-06-30T05:48:08.188Z,22.92
2023-06-30T05:50:36.146Z,17.30
2023-06-30T05:53:05.399Z,17.45
2023-06-30T05:55:33.291Z,14.27
2023-06-30T05:58:01.206Z,12.48
2023-06-30T06:00:29.036Z,17.58
2023-06-30T06:02:57.184Z,18.05
2023-06-30T06:05:25.588Z,13.48
2023-06-30T06:07:53.691Z,17.63
2023-06-30T06:10:23.101Z,12.40
2023-06-30T06:12:53.731Z,15.88
2023-06-30T06:15:22.720Z,17.75
2023-06-30T06:17:50.703Z,19.90
2023-06-30T06:20:18.815Z,14.98
2023-06-30T06:22:46.726Z,15.63
2023-06-30T06:25:14.653Z,17.80
2023-06-30T06:27:43.801Z,16.60
2023-06-30T06:30:12.801Z,14.30
2023-06-30T06:32:40.662Z,15.05
2023-06-30T06:35:09.448Z,18.52
2023-06-30T06:37:37.333Z,14.93
2023-06-30T06:40:06.683Z,17.38
2023-06-30T06:42:34.538Z,15.27
2023-06-30T06:45:06.405Z,12.50
2023-06-30T06:48:23.435Z,15.13
2023-06-30T06:50:52.481Z,16.35
2023-06-30T06:53:21.893Z,15.65
2023-06-30T06:55:50.875Z,14.57
2023-06-30T06:58:19.178Z,16.50
2023-06-30T07:00:49.409Z,24.15
2023-06-30T07:03:18.153Z,13.32
2023-06-30T07:05:47.020Z,18.23
2023-06-30T07:08:16.285Z,18.60
2023-06-30T07:10:45.432Z,14.52
2023-06-30T07:13:13.307Z,17.10
2023-06-30T07:15:41.248Z,20.25
2023-06-30T07:18:10.700Z,13.40
2023-06-30T07:20:38.621Z,15.57
2023-06-30T07:23:06.533Z,14.15
2023-06-30T07:25:34.365Z,13.40
2023-06-30T07:28:02.301Z,19.65
2023-06-30T07:30:30.308Z,15.80
2023-06-30T07:32:58.190Z,13.70
2023-06-30T07:35:27.470Z,16.98
2023-06-30T07:37:55.327Z,19.50
2023-06-30T07:40:24.341Z,17.08
2023-06-30T07:42:54.417Z,13.75
2023-06-30T07:45:22.397Z,15.43
2023-06-30T07:47:50.494Z,15.57
2023-06-30T07:50:18.428Z,14.60
2023-06-30T07:52:49.786Z,15.60
2023-06-30T07:55:19.239Z,15.45
2023-06-30T07:57:49.355Z,22.67
2023-06-30T08:00:19.470Z,12.95
2023-06-30T08:02:48.515Z,16.02
2023-06-30T08:05:16.768Z,16.35
2023-06-30T08:07:50.196Z,15.48
2023-06-30T08:10:20.092Z,17.02
2023-06-30T08:12:48.333Z,16.23
2023-06-30T08:15:16.307Z,14.95
2023-06-30T08:17:53.664Z,19.55
2023-06-30T08:20:27.432Z,12.88
2023-06-30T08:22:55.923Z,16.25
2023-06-30T08:25:26.445Z,17.50
2023-06-30T08:27:54.495Z,13.70
2023-06-30T08:30:24.963Z,16.77
2023-06-30T08:32:55.467Z,16.95
2023-06-30T08:35:24.368Z,18.48
2023-06-30T08:37:53.870Z,16.60
2023-06-30T08:40:27.022Z,15.32
2023-06-30T08:42:57.259Z,17.17
2023-06-30T08:45:27.514Z,12.57
2023-06-30T08:47:57.407Z,12.38
2023-06-30T08:50:26.344Z,18.88
2023-06-30T08:52:55.915Z,14.73
2023-06-30T08:55:25.087Z,16.65
2023-06-30T08:57:54.517Z,15.60
2023-06-30T09:00:22.795Z,18.10
2023-06-30T09:02:51.325Z,16.02
2023-06-30T09:05:20.697Z,17.98
2023-06-30T09:07:54.106Z,16.95
2023-06-30T09:10:23.475Z,15.27
2023-06-30T09:12:55.576Z,23.63
2023-06-30T09:15:24.470Z,17.80
2023-06-30T09:17:52.775Z,14.18
2023-06-30T09:20:23.333Z,16.55
2023-06-30T09:22:54.276Z,15.23
2023-06-30T09:25:41.604Z,16.23
2023-06-30T09:28:15.983Z,15.68
2023-06-30T09:30:48.851Z,14.60
2023-06-30T09:33:17.691Z,18.63
2023-06-30T09:35:47.064Z,17.92
2023-06-30T09:38:16.730Z,17.40
2023-06-30T09:40:45.376Z,13.27
2023-06-30T09:43:19.595Z,18.20
2023-06-30T09:45:50.090Z,20.95
2023-06-30T09:48:18.750Z,14.48
2023-06-30T09:50:46.629Z,16.92
2023-06-30T09:53:20.611Z,18.75
2023-06-30T09:55:50.448Z,14.98
2023-06-30T09:58:21.018Z,17.52
2023-06-30T10:00:51.653Z,18.70
2023-06-30T10:03:19.931Z,13.25
2023-06-30T10:05:50.495Z,18.63
2023-06-30T10:08:20.884Z,21.40
2023-06-30T10:10:49.598Z,17.58
2023-06-30T10:13:20.296Z,18.27
2023-06-30T10:15:48.830Z,15.75
2023-06-30T10:18:18.960Z,18.85
2023-06-30T10:20:49.633Z,16.17
2023-06-30T10:23:20.170Z,18.63
2023-06-30T10:25:48.855Z,16.60
2023-06-30T10:28:17.485Z,16.30
2023-06-30T10:30:46.761Z,23.92
2023-06-30T10:33:14.874Z,17.38
2023-06-30T10:35:43.965Z,26.30
2023-06-30T10:38:14.256Z,21.42
2023-06-30T10:40:42.460Z,20.45
2023-06-30T10:43:11.236Z,21.55
2023-06-30T10:46:06.808Z,27.25
2023-06-30T10:48:36.656Z,20.70
2023-06-30T10:51:06.527Z,19.15
2023-06-30T10:53:36.906Z,25.02
2023-06-30T10:56:05.011Z,21.08
2023-06-30T10:58:32.899Z,21.90
2023-06-30T11:01:06.322Z,20.52
2023-06-30T11:04:07.920Z,23.40
2023-06-30T11:06:37.976Z,20.38
2023-06-30T11:09:11.404Z,23.23
2023-06-30T11:11:54.257Z,22.13
2023-06-30T11:14:36.996Z,26.95
2023-06-30T11:17:07.925Z,29.80
2023-06-30T11:19:37.392Z,23.13
2023-06-30T11:22:24.809Z,28.27
2023-06-30T11:24:52.803Z,22.30
2023-06-30T11:27:20.971Z,28.08
2023-06-30T11:29:51.284Z,25.40
2023-06-30T11:32:27.488Z,22.77
2023-06-30T11:34:57.407Z,31.08
2023-06-30T11:37:25.541Z,27.38
2023-06-30T11:39:54.203Z,33.17
2023-06-30T11:42:22.673Z,28.52
2023-06-30T11:44:51.113Z,33.65
2023-06-30T11:47:21.660Z,30.65
2023-06-30T11:49:50.311Z,36.97
2023-06-30T11:52:21.162Z,38.72
2023-06-30T11:54:49.087Z,34.65
2023-06-30T11:57:17.113Z,41.08
2023-06-30T11:59:45.037Z,37.47
2023-06-30T12:02:16.195Z,40.75
2023-06-30T12:04:49.675Z,35.25
2023-06-30T12:07:18.056Z,48.00
2023-06-30T12:09:50.167Z,40.30
2023-06-30T12:12:35.534Z,49.33
2023-06-30T12:15:05.753Z,49.60
2023-06-30T12:17:37.483Z,50.10
2023-06-30T12:20:08.381Z,55.95
2023-06-30T12:22:42.497Z,62.42
2023-06-30T12:25:12.626Z,55.58
2023-06-30T12:27:44.774Z,63.78
2023-06-30T12:30:16.973Z,62.20
2023-06-30T12:32:45.900Z,60.65
2023-06-30T12:35:15.474Z,52.38
2023-06-30T12:37:45.656Z,48.72
2023-06-30T12:40:15.020Z,40.88
2023-06-30T12:42:49.122Z,36.63
2023-06-30T12:45:17.351Z,27.75
2023-06-30T12:47:45.147Z,29.75
2023-06-30T12:50:13.129Z,24.23
2023-06-30T12:52:42.392Z,24.88
2023-06-30T12:55:11.120Z,22.40
2023-06-30T12:57:39.767Z,23.30
2023-06-30T13:00:10.534Z,24.60
2023-06-30T13:02:39.113Z,24.73
2023-06-30T13:05:08.070Z,20.55
2023-06-30T13:07:36.995Z,21.67
2023-06-30T13:10:07.724Z,23.00
2023-06-30T13:12:40.834Z,20.25
2023-06-30T13:15:09.836Z,22.35
2023-06-30T13:17:37.927Z,22.30
2023-06-30T13:20:07.640Z,22.25
2023-06-30T13:22:37.967Z,24.70
2023-06-30T13:25:10.038Z,24.05
2023-06-30T13:27:37.874Z,29.25
2023-06-30T13:30:06.958Z,26.98
2023-06-30T13:32:34.936Z,22.90
2023-06-30T13:35:02.801Z,28.38
2023-06-30T13:37:30.627Z,19.05
2023-06-30T13:39:58.441Z,19.23
2023-06-30T13:42:28.688Z,13.40
2023-06-30T13:44:56.533Z,13.25
2023-06-30T13:47:24.386Z,13.95
2023-06-30T13:49:52.250Z,13.55
2023-06-30T13:52:20.792Z,14.48
2023-06-30T13:54:48.683Z,11.45
2023-06-30T13:57:16.677Z,14.07
2023-06-30T13:59:45.894Z,13.15
2023-06-30T14:02:13.793Z,13.07
2023-06-30T14:04:41.715Z,13.70
2023-06-30T14:07:10.154Z,13.52
2023-06-30T14:09:38.056Z,15.55
2023-06-30T14:12:06.881Z,9.65
2023-06-30T14:14:34.684Z,10.50
2023-06-30T14:17:03.923Z,9.75
2023-06-30T14:19:31.781Z,6.80
2023-06-30T14:22:00.036Z,8.10
2023-06-30T14:24:27.903Z,5.07
2023-06-30T14:26:55.853Z,6.97
2023-06-30T14:29:23.849Z,6.93
2023-06-30T14:31:51.807Z,5.22
2023-06-30T14:34:21.194Z,5.18
2023-06-30T14:36:49.257Z,6.68
2023-06-30T14:39:17.112Z,5.28
2023-06-30T14:41:53.672Z,5.03
2023-06-30T14:44:29.176Z,7.60
2023-06-30T14:46:57.167Z,4.50
2023-06-30T14:49:26.412Z,5.50
2023-06-30T14:51:54.279Z,4.88
2023-06-30T14:54:22.185Z,5.93
2023-06-30T14:56:49.979Z,6.50
2023-06-30T14:59:17.805Z,4.45
2023-06-30T15:01:45.935Z,5.70
2023-06-30T15:04:13.928Z,4.38
2023-06-30T15:06:43.129Z,5.15
2023-06-30T15:09:11.048Z,6.47
2023-06-30T15:11:38.874Z,4.43
2023-06-30T15:14:07.081Z,4.38
2023-06-30T15:16:35.712Z,4.55
2023-06-30T15:19:03.792Z,4.10
2023-06-30T15:21:31.722Z,4.65
2023-06-30T15:24:00.922Z,7.95
2023-06-30T15:26:29.472Z,6.60
2023-06-30T15:28:57.286Z,6.10
2023-06-30T15:31:25.172Z,3.83
2023-06-30T15:33:53.664Z,5.18
2023-06-30T15:36:21.588Z,6.05
2023-06-30T15:38:57.282Z,5.00
2023-06-30T15:41:26.700Z,3.35
2023-06-30T15:43:54.546Z,4.70
2023-06-30T15:46:22.457Z,5.60
2023-06-30T15:48:50.411Z,4.43
2023-06-30T15:51:18.324Z,5.78
2023-06-30T15:53:46.256Z,6.03
2023-06-30T15:56:14.281Z,2.83
2023-06-30T15:58:43.716Z,2.83
2023-06-30T16:01:11.666Z,7.80
2023-06-30T16:03:39.936Z,3.75
2023-06-30T16:06:07.915Z,4.47
2023-06-30T16:08:35.975Z,4.25
2023-06-30T16:11:03.907Z,4.82
2023-06-30T16:13:31.793Z,5.25
2023-06-30T16:16:01.340Z,5.63
2023-06-30T16:18:30.203Z,5.57
2023-06-30T16:21:01.197Z,6.70
2023-06-30T16:23:29.049Z,4.32
2023-06-30T16:25:56.977Z,5.93
2023-06-30T16:28:24.845Z,8.32
2023-06-30T16:30:52.687Z,8.73
2023-06-30T16:33:22.076Z,9.88
2023-06-30T16:35:50.069Z,5.45
2023-06-30T16:38:18.009Z,7.28
2023-06-30T16:40:45.866Z,5.93
2023-06-30T16:43:13.763Z,7.00
2023-06-30T16:45:41.750Z,7.63
2023-06-30T16:48:09.809Z,6.85
2023-06-30T16:50:39.250Z,6.13
2023-06-30T16:53:07.221Z,5.90
2023-06-30T16:55:35.097Z,6.32
2023-06-30T16:58:03.322Z,5.75
2023-06-30T17:00:31.234Z,7.20
2023-06-30T17:02:59.236Z,7.03
2023-06-30T17:05:27.383Z,5.43
2023-06-30T17:07:56.610Z,11.18
2023-06-30T17:10:25.432Z,7.47
2023-06-30T17:12:53.292Z,7.07
2023-06-30T17:15:21.203Z,8.05
2023-06-30T17:17:49.310Z,6.75
2023-06-30T17:20:17.389Z,11.60
2023-06-30T17:22:45.386Z,12.98
2023-06-30T17:25:14.661Z,7.95
2023-06-30T17:27:42.588Z,8.23
2023-06-30T17:30:11.923Z,10.05
2023-06-30T17:32:39.882Z,11.90
2023-06-30T17:35:09.161Z,14.30
2023-06-30T17:37:37.174Z,8.65
2023-06-30T17:40:05.951Z,5.43
2023-06-30T17:42:35.270Z,6.53
2023-06-30T17:45:03.424Z,5.63
2023-06-30T17:47:31.348Z,7.93
2023-06-30T17:50:00.546Z,8.20
2023-06-30T17:52:28.435Z,7.95
2023-06-30T17:54:56.313Z,7.40
2023-06-30T17:57:24.158Z,10.23
2023-06-30T17:59:53.440Z,6.88
2023-06-30T18:02:21.372Z,6.55
2023-06-30T18:04:50.128Z,8.75
2023-06-30T18:07:18.156Z,9.45
2023-06-30T18:09:47.105Z,8.00
2023-06-30T18:12:15.197Z,7.95
2023-06-30T18:14:43.864Z,10.82
2023-06-30T18:17:14.848Z,7.32
2023-06-30T18:19:42.844Z,6.70
2023-06-30T18:22:11.039Z,7.13
2023-06-30T18:24:39.175Z,9.63
2023-06-30T18:27:07.367Z,6.70
2023-06-30T18:29:35.271Z,8.70
2023-06-30T18:32:03.910Z,7.13
2023-06-30T18:34:33.233Z,9.27
2023-06-30T18:37:01.228Z,6.72
2023-06-30T18:39:29.071Z,10.05
2023-06-30T18:41:56.991Z,8.85
2023-06-30T18:44:25.953Z,5.35
2023-06-30T18:46:53.930Z,8.55
2023-06-30T18:49:24.692Z,10.45
2023-06-30T18:51:55.418Z,7.07
2023-06-30T18:54:24.076Z,6.13
2023-06-30T18:56:52.201Z,10.63
2023-06-30T18:59:20.211Z,9.45
2023-06-30T19:01:48.323Z,12.20
2023-06-30T19:04:16.414Z,7.35
2023-06-30T19:06:44.679Z,7.93
2023-06-30T19:09:14.167Z,8.57
2023-06-30T19:11:42.307Z,10.75
2023-06-30T19:14:10.174Z,10.55
2023-06-30T19:16:38.081Z,6.55
2023-06-30T19:19:06.061Z,8.15
2023-06-30T19:21:33.989Z,7.93
2023-06-30T19:24:01.946Z,6.95
2023-06-30T19:26:31.168Z,8.85
2023-06-30T19:28:59.132Z,9.65
2023-06-30T19:31:27.607Z,14.00
2023-06-30T19:33:55.577Z,7.70
2023-06-30T19:36:24.698Z,10.05
2023-06-30T19:38:52.585Z,10.38
2023-06-30T19:41:20.772Z,10.32
2023-06-30T19:43:50.098Z,11.52
2023-06-30T19:46:18.211Z,12.90
2023-06-30T19:48:46.031Z,9.40
2023-06-30T19:51:13.870Z,8.45
2023-06-30T19:53:42.351Z,7.20
2023-06-30T19:56:14.437Z,9.48
2023-06-30T19:58:45.665Z,10.48
2023-06-30T20:01:17.821Z,11.43
2023-06-30T20:03:46.120Z,13.13
2023-06-30T20:06:13.972Z,10.73
2023-06-30T20:08:41.908Z,9.75
2023-06-30T20:11:10.753Z,9.65
2023-06-30T20:13:38.559Z,10.48
2023-06-30T20:16:06.687Z,12.30
2023-06-30T20:18:35.865Z,9.65
2023-06-30T20:21:03.687Z,13.25
2023-06-30T20:23:31.648Z,10.63
2023-06-30T20:25:59.602Z,12.40
2023-06-30T20:28:27.461Z,11.57
2023-06-30T20:30:55.345Z,13.77
2023-06-30T20:33:23.288Z,10.32
2023-06-30T20:35:52.829Z,11.30
2023-06-30T20:38:21.444Z,14.45
2023-06-30T20:40:49.680Z,13.90
2023-06-30T20:43:17.936Z,15.10
2023-06-30T20:45:45.825Z,13.20
2023-06-30T20:48:13.713Z,18.70
2023-06-30T20:50:42.811Z,13.75
2023-06-30T20:53:12.019Z,15.32
2023-06-30T20:55:40.321Z,16.10
2023-06-30T20:58:08.237Z,14.25
2023-06-30T21:04:49.178Z,11.60
2023-06-30T21:07:17.129Z,16.25
2023-06-30T21:09:46.432Z,13.38
2023-06-30T21:12:14.447Z,17.40
2023-06-30T21:18:55.378Z,13.82
2023-06-30T21:21:23.408Z,14.05
2023-06-30T21:23:51.320Z,14.05
2023-06-30T21:26:20.449Z,17.50
2023-06-30T21:28:48.370Z,11.73
2023-06-30T21:31:16.365Z,14.02
2023-06-30T21:33:44.234Z,16.30
2023-06-30T21:36:14.471Z,11.90
2023-06-30T21:38:42.753Z,13.70
2023-06-30T21:41:10.670Z,13.95
2023-06-30T21:43:39.895Z,12.93
2023-06-30T21:46:13.008Z,14.15
2023-06-30T21:48:41.055Z,12.52
2023-06-30T21:51:09.504Z,12.25
2023-06-30T21:53:37.427Z,10.30
2023-06-30T21:56:05.751Z,13.38
2023-06-30T21:58:33.607Z,11.48
2023-06-30T22:01:02.922Z,14.85
2023-06-30T22:03:31.823Z,16.15
2023-06-30T22:05:59.738Z,11.85
2023-06-30T22:08:27.574Z,18.40
2023-06-30T22:10:56.036Z,13.10
2023-06-30T22:13:24.379Z,14.35
2023-06-30T22:15:52.287Z,10.85
2023-06-30T22:18:21.476Z,12.23
2023-06-30T22:20:49.669Z,14.68
2023-06-30T22:23:17.781Z,13.57
2023-06-30T22:25:45.642Z,11.45
2023-06-30T22:28:13.513Z,18.13
2023-06-30T22:30:41.368Z,11.85
2023-06-30T22:33:09.315Z,14.55
2023-06-30T22:35:38.443Z,13.55
2023-06-30T22:38:06.324Z,12.18
2023-06-30T22:40:34.147Z,12.15
2023-06-30T22:43:02.280Z,13.63
2023-06-30T22:45:30.470Z,11.40
2023-06-30T22:47:58.698Z,12.95
2023-06-30T22:50:26.626Z,10.30
2023-06-30T22:52:55.868Z,14.02
2023-06-30T22:55:23.864Z,12.93
2023-06-30T22:57:51.708Z,14.23
2023-06-30T23:00:20.035Z,13.15
2023-06-30T23:02:47.946Z,15.45
2023-06-30T23:05:15.829Z,13.15
2023-06-30T23:07:43.689Z,13.98
2023-06-30T23:10:12.978Z,11.65
2023-06-30T23:12:40.905Z,12.50
2023-06-30T23:15:09.383Z,13.07
2023-06-30T23:17:37.439Z,12.45
2023-06-30T23:20:06.593Z,15.55
2023-06-30T23:22:34.557Z,16.60
2023-06-30T23:25:02.854Z,14.73
2023-06-30T23:27:35.230Z,14.02
2023-06-30T23:30:03.739Z,15.70
2023-06-30T23:32:31.630Z,14.48
2023-06-30T23:34:59.600Z,15.45
2023-06-30T23:37:27.426Z,18.02
2023-06-30T23:39:55.248Z,12.65
2023-06-30T23:42:23.088Z,18.77
2023-06-30T23:44:52.214Z,15.75
2023-06-30T23:47:20.244Z,17.60
2023-06-30T23:49:48.685Z,11.38
2023-06-30T23:52:17.417Z,14.52
2023-06-30T23:54:45.541Z,16.30
2023-06-30T23:57:13.462Z,12.82
2023-06-30T23:59:41.312Z,13.38
